createdAt,value
2022-09-15T00:00:12.611Z,3.65
2022-09-15T00:03:15.903Z,3.30
2022-09-15T00:06:20.213Z,3.22
2022-09-15T00:09:23.651Z,3.05
2022-09-15T00:12:27.746Z,3.07
2022-09-15T00:15:31.287Z,3.00
2022-09-15T00:18:36.372Z,2.83
2022-09-15T00:21:41.605Z,3.42
2022-09-15T00:24:44.573Z,2.67
2022-09-15T00:27:48.548Z,2.90
2022-09-15T00:30:54.347Z,3.20
2022-09-15T00:33:59.668Z,3.20
2022-09-15T00:37:02.639Z,3.17
2022-09-15T00:40:06.401Z,4.00
2022-09-15T00:43:10.989Z,3.77
2022-09-15T00:46:16.485Z,4.00
2022-09-15T00:49:21.606Z,3.72
2022-09-15T00:52:27.487Z,3.70
2022-09-15T00:55:47.896Z,3.87
2022-09-15T00:58:57.048Z,4.50
2022-09-15T01:02:15.881Z,4.28
2022-09-15T01:05:23.400Z,3.95
2022-09-15T01:08:36.690Z,4.47
2022-09-15T01:11:40.266Z,4.03
2022-09-15T01:14:43.190Z,4.03
2022-09-15T01:18:04.063Z,3.80
2022-09-15T01:21:06.999Z,3.95
2022-09-15T01:24:34.843Z,4.25
2022-09-15T01:28:15.214Z,3.45
2022-09-15T01:31:25.058Z,4.20
2022-09-15T01:34:31.243Z,3.95
2022-09-15T01:37:38.111Z,3.80
2022-09-15T01:41:25.395Z,3.70
2022-09-15T01:44:36.498Z,4.30
2022-09-15T01:47:39.862Z,4.00
2022-09-15T01:50:46.489Z,4.82
2022-09-15T01:53:49.878Z,4.20
2022-09-15T01:56:53.087Z,4.32
2022-09-15T01:59:56.529Z,3.70
2022-09-15T02:03:04.743Z,4.30
2022-09-15T02:06:14.674Z,4.18
2022-09-15T02:09:22.745Z,3.55
2022-09-15T02:12:51.034Z,3.72
2022-09-15T02:15:57.923Z,3.53
2022-09-15T02:19:11.132Z,4.07
2022-09-15T02:22:17.719Z,3.30
2022-09-15T02:25:33.178Z,3.72
2022-09-15T02:28:38.609Z,3.97
2022-09-15T02:31:42.497Z,3.67
2022-09-15T02:34:47.860Z,4.07
2022-09-15T02:37:52.013Z,4.20
2022-09-15T02:40:54.656Z,4.05
2022-09-15T02:43:57.678Z,3.55
2022-09-15T02:47:02.002Z,4.40
2022-09-15T02:50:05.973Z,3.90
2022-09-15T02:53:09.155Z,4.07
2022-09-15T02:56:13.001Z,3.28
2022-09-15T02:59:15.831Z,3.90
2022-09-15T03:02:20.557Z,3.30
2022-09-15T03:05:26.385Z,3.20
2022-09-15T03:08:29.578Z,3.00
2022-09-15T03:11:32.843Z,3.08
2022-09-15T03:14:36.059Z,2.85
2022-09-15T03:17:41.697Z,2.67
2022-09-15T03:20:44.717Z,2.80
2022-09-15T03:23:48.154Z,2.45
2022-09-15T03:26:51.591Z,1.70
2022-09-15T03:29:54.573Z,2.00
2022-09-15T03:32:57.721Z,2.08
2022-09-15T03:36:01.407Z,2.00
2022-09-15T03:39:04.939Z,2.00
2022-09-15T03:42:07.884Z,1.98
2022-09-15T03:45:10.957Z,2.05
2022-09-15T03:48:13.726Z,2.00
2022-09-15T03:51:17.180Z,1.90
2022-09-15T03:54:20.338Z,2.00
2022-09-15T03:57:23.537Z,1.87
2022-09-15T04:00:26.399Z,1.80
2022-09-15T04:03:31.735Z,1.90
2022-09-15T04:06:35.658Z,1.80
2022-09-15T04:09:38.824Z,1.65
2022-09-15T04:12:42.086Z,1.98
2022-09-15T04:15:45.165Z,1.52
2022-09-15T04:18:47.941Z,2.47
2022-09-15T04:21:50.822Z,1.67
2022-09-15T04:24:53.826Z,1.58
2022-09-15T04:27:57.803Z,1.60
2022-09-15T04:31:05.582Z,1.60
2022-09-15T04:34:09.460Z,1.48
2022-09-15T04:37:12.535Z,1.57
2022-09-15T04:40:16.069Z,1.55
2022-09-15T04:43:18.989Z,1.73
2022-09-15T04:46:22.117Z,1.60
2022-09-15T04:49:25.326Z,1.30
2022-09-15T04:52:28.637Z,1.20
2022-09-15T04:55:32.332Z,1.92
2022-09-15T04:58:37.725Z,1.25
2022-09-15T05:01:40.569Z,1.60
2022-09-15T05:04:44.160Z,1.62
2022-09-15T05:07:50.234Z,1.40
2022-09-15T05:10:53.468Z,1.23
2022-09-15T05:13:56.887Z,1.40
2022-09-15T05:17:00.308Z,1.37
2022-09-15T05:20:04.976Z,1.15
2022-09-15T05:23:08.054Z,1.60
2022-09-15T05:26:16.189Z,1.40
2022-09-15T05:29:20.487Z,1.20
2022-09-15T05:32:23.387Z,1.10
2022-09-15T05:35:26.926Z,1.40
2022-09-15T05:38:31.480Z,1.20
2022-09-15T05:41:34.752Z,1.50
2022-09-15T05:44:37.990Z,1.35
2022-09-15T05:47:41.142Z,1.45
2022-09-15T05:50:49.359Z,1.20
2022-09-15T05:53:52.467Z,1.53
2022-09-15T05:56:55.543Z,1.65
2022-09-15T05:59:59.097Z,1.70
2022-09-15T06:03:02.142Z,1.60
2022-09-15T06:06:06.397Z,2.10
2022-09-15T06:09:09.569Z,1.80
2022-09-15T06:12:12.765Z,1.80
2022-09-15T06:15:15.979Z,1.77
2022-09-15T06:18:19.299Z,1.75
2022-09-15T06:21:26.818Z,2.25
2022-09-15T06:24:29.879Z,2.00
2022-09-15T06:27:33.083Z,2.20
2022-09-15T06:30:39.701Z,1.90
2022-09-15T06:33:44.651Z,2.33
2022-09-15T06:36:47.809Z,1.85
2022-09-15T06:39:51.210Z,1.87
2022-09-15T06:42:57.668Z,2.10
2022-09-15T06:46:09.813Z,2.22
2022-09-15T06:49:12.872Z,1.80
2022-09-15T06:52:15.634Z,1.92
2022-09-15T06:55:18.608Z,1.90
2022-09-15T06:58:21.303Z,1.90
2022-09-15T07:01:29.567Z,1.58
2022-09-15T07:04:34.723Z,1.87
2022-09-15T07:07:37.774Z,2.15
2022-09-15T07:10:44.168Z,2.17
2022-09-15T07:13:50.813Z,2.30
2022-09-15T07:16:54.051Z,1.80
2022-09-15T07:19:57.520Z,1.77
2022-09-15T07:23:00.098Z,2.22
2022-09-15T07:26:08.453Z,1.60
2022-09-15T07:29:12.299Z,1.77
2022-09-15T07:32:15.309Z,2.00
2022-09-15T07:35:18.777Z,1.87
2022-09-15T07:38:22.208Z,1.65
2022-09-15T07:41:29.382Z,1.87
2022-09-15T07:44:32.602Z,1.42
2022-09-15T07:47:35.671Z,1.70
2022-09-15T07:50:39.119Z,1.92
2022-09-15T07:53:43.635Z,1.50
2022-09-15T07:56:47.426Z,1.40
2022-09-15T07:59:50.303Z,1.60
2022-09-15T08:02:53.810Z,1.15
2022-09-15T08:05:58.832Z,1.48
2022-09-15T08:09:02.350Z,0.98
2022-09-15T08:12:06.819Z,1.30
2022-09-15T08:15:09.959Z,1.08
2022-09-15T08:18:13.195Z,1.00
2022-09-15T08:21:21.006Z,1.80
2022-09-15T08:24:24.630Z,1.12
2022-09-15T08:27:27.851Z,0.80
2022-09-15T08:30:31.238Z,0.80
2022-09-15T08:33:34.781Z,0.62
2022-09-15T08:36:38.817Z,0.73
2022-09-15T08:39:41.589Z,0.80
2022-09-15T08:42:47.045Z,0.80
2022-09-15T08:45:56.275Z,0.82
2022-09-15T08:49:05.672Z,0.80
2022-09-15T08:52:17.071Z,0.62
2022-09-15T08:55:50.283Z,0.60
2022-09-15T08:58:52.955Z,0.80
2022-09-15T09:02:39.352Z,0.70
2022-09-15T09:05:45.630Z,0.73
2022-09-15T09:08:56.115Z,0.90
2022-09-15T09:12:29.332Z,0.73
2022-09-15T09:15:54.153Z,0.67
2022-09-15T09:19:23.755Z,0.70
2022-09-15T09:22:33.163Z,0.80
2022-09-15T09:25:36.775Z,0.60
2022-09-15T09:28:50.240Z,0.68
2022-09-15T09:31:53.637Z,0.70
2022-09-15T09:35:09.110Z,0.55
2022-09-15T09:38:15.014Z,0.60
2022-09-15T09:41:23.339Z,0.52
2022-09-15T09:44:31.888Z,0.65
2022-09-15T09:47:36.543Z,0.60
2022-09-15T09:50:45.344Z,0.70
2022-09-15T09:53:53.920Z,0.65
2022-09-15T09:57:17.668Z,0.70
2022-09-15T10:00:35.560Z,0.60
2022-09-15T10:03:38.898Z,0.67
2022-09-15T10:06:41.795Z,0.62
2022-09-15T10:09:50.583Z,0.60
2022-09-15T10:12:57.021Z,0.68
2022-09-15T10:16:01.588Z,0.90
2022-09-15T10:19:04.543Z,0.50
2022-09-15T10:22:07.725Z,0.60
2022-09-15T10:25:19.889Z,0.70
2022-09-15T10:28:25.981Z,0.85
2022-09-15T10:31:32.027Z,0.70
2022-09-15T10:34:36.419Z,0.70
2022-09-15T10:38:23.482Z,0.57
2022-09-15T10:41:31.479Z,0.70
2022-09-15T10:44:47.167Z,0.70
2022-09-15T10:48:07.141Z,0.60
2022-09-15T10:51:16.510Z,0.60
2022-09-15T10:54:59.745Z,0.70
2022-09-15T10:58:11.590Z,0.73
2022-09-15T11:01:30.380Z,0.73
2022-09-15T11:04:45.582Z,0.90
2022-09-15T11:08:27.841Z,0.50
2022-09-15T11:11:39.209Z,0.60
2022-09-15T11:14:45.152Z,0.57
2022-09-15T11:18:29.053Z,1.00
2022-09-15T11:21:36.831Z,0.60
2022-09-15T11:24:48.557Z,0.63
2022-09-15T11:28:01.580Z,0.60
2022-09-15T11:31:19.646Z,0.55
2022-09-15T11:34:33.661Z,1.02
2022-09-15T11:37:40.084Z,0.98
2022-09-15T11:40:48.977Z,1.00
2022-09-15T11:43:55.225Z,0.88
2022-09-15T11:47:30.766Z,1.00
2022-09-15T11:50:39.494Z,0.90
2022-09-15T11:54:06.408Z,0.73
2022-09-15T11:57:16.999Z,0.70
2022-09-15T12:00:21.247Z,0.62
2022-09-15T12:03:29.164Z,1.00
2022-09-15T12:07:14.892Z,0.85
2022-09-15T12:10:22.712Z,1.20
2022-09-15T12:13:26.405Z,1.20
2022-09-15T12:16:30.482Z,1.20
2022-09-15T12:19:33.575Z,1.10
2022-09-15T12:22:59.316Z,1.10
2022-09-15T12:26:18.349Z,1.45
2022-09-15T12:29:27.431Z,1.00
2022-09-15T12:32:33.215Z,1.10
2022-09-15T12:35:36.665Z,1.05
2022-09-15T12:38:39.660Z,1.20
2022-09-15T12:42:06.738Z,1.00
2022-09-15T12:45:33.370Z,1.10
2022-09-15T12:48:36.711Z,1.10
2022-09-15T12:51:39.340Z,1.40
2022-09-15T12:54:43.628Z,1.10
2022-09-15T12:57:55.188Z,1.20
2022-09-15T13:01:24.553Z,1.30
2022-09-15T13:04:51.521Z,1.23
2022-09-15T13:07:58.266Z,1.75
2022-09-15T13:11:03.854Z,1.60
2022-09-15T13:14:10.840Z,1.40
2022-09-15T13:17:17.046Z,1.73
2022-09-15T13:20:26.166Z,1.60
2022-09-15T13:23:35.280Z,1.55
2022-09-15T13:26:38.470Z,1.45
2022-09-15T13:29:56.361Z,1.10
2022-09-15T13:41:20.837Z,1.37
2022-09-15T13:44:42.078Z,2.10
2022-09-15T13:47:55.306Z,1.80
2022-09-15T13:51:00.887Z,1.47
2022-09-15T13:54:06.893Z,1.10
2022-09-15T13:57:09.481Z,1.30
2022-09-15T14:00:26.880Z,1.62
2022-09-15T14:03:55.353Z,1.62
2022-09-15T14:07:01.075Z,1.00
2022-09-15T14:10:04.894Z,1.40
2022-09-15T14:13:14.298Z,1.58
2022-09-15T14:16:33.969Z,1.83
2022-09-15T14:19:38.390Z,1.90
2022-09-15T14:22:41.377Z,1.50
2022-09-15T14:25:45.912Z,1.80
2022-09-15T14:28:50.388Z,1.92
2022-09-15T14:31:53.428Z,1.73
2022-09-15T14:34:58.690Z,2.22
2022-09-15T14:38:01.486Z,1.70
2022-09-15T14:41:05.435Z,2.15
2022-09-15T14:45:55.626Z,2.03
2022-09-15T14:47:43.455Z,2.50
2022-09-15T14:51:00.502Z,2.30
2022-09-15T14:54:03.977Z,2.00
2022-09-15T14:57:06.703Z,2.10
2022-09-15T15:00:15.620Z,2.45
2022-09-15T15:03:50.794Z,2.80
2022-09-15T15:07:22.799Z,2.42
2022-09-15T15:10:32.175Z,2.50
2022-09-15T15:13:42.444Z,2.22
2022-09-15T15:17:05.902Z,2.22
2022-09-15T15:20:09.195Z,2.15
2022-09-15T15:23:26.287Z,2.65
2022-09-15T15:26:37.811Z,2.70
2022-09-15T15:29:45.397Z,2.90
2022-09-15T15:32:48.320Z,2.20
2022-09-15T15:36:04.491Z,2.03
2022-09-15T15:39:17.273Z,1.80
2022-09-15T15:42:20.688Z,1.33
2022-09-15T15:45:26.455Z,1.60
2022-09-15T15:48:35.271Z,1.80
2022-09-15T15:51:40.968Z,1.50
2022-09-15T15:54:43.745Z,1.50
2022-09-15T15:57:54.163Z,1.67
2022-09-15T16:00:57.783Z,1.80
2022-09-15T16:04:00.746Z,1.50
2022-09-15T16:07:03.985Z,1.50
2022-09-15T16:10:08.323Z,1.70
2022-09-15T16:13:16.035Z,1.70
2022-09-15T16:16:24.036Z,1.37
2022-09-15T16:19:26.632Z,1.58
2022-09-15T16:22:29.614Z,1.65
2022-09-15T16:25:40.114Z,2.40
2022-09-15T16:28:43.200Z,2.10
2022-09-15T16:31:45.805Z,2.00
2022-09-15T16:34:53.925Z,2.20
2022-09-15T16:37:56.416Z,2.17
2022-09-15T16:41:00.381Z,1.73
2022-09-15T16:44:04.087Z,1.97
2022-09-15T16:47:07.182Z,1.77
2022-09-15T16:50:11.490Z,2.20
2022-09-15T16:53:18.624Z,2.33
2022-09-15T16:56:21.099Z,2.42
2022-09-15T16:59:24.793Z,2.47
2022-09-15T17:02:27.368Z,2.28
2022-09-15T17:05:50.279Z,2.00
2022-09-15T17:08:53.388Z,2.62
2022-09-15T17:11:56.486Z,3.10
2022-09-15T17:14:58.993Z,2.80
2022-09-15T17:18:01.951Z,2.55
2022-09-15T17:21:05.510Z,3.00
2022-09-15T17:24:09.083Z,2.97
2022-09-15T17:27:11.628Z,3.17
2022-09-15T17:30:14.605Z,3.37
2022-09-15T17:33:18.329Z,3.80
2022-09-15T17:36:27.829Z,4.05
2022-09-15T17:39:30.418Z,3.78
2022-09-15T17:42:33.201Z,4.18
2022-09-15T17:45:36.612Z,4.00
2022-09-15T17:48:39.685Z,4.25
2022-09-15T17:51:42.242Z,4.45
2022-09-15T17:54:45.162Z,4.05
2022-09-15T17:57:48.898Z,3.85
2022-09-15T18:00:53.141Z,3.87
2022-09-15T18:03:56.020Z,4.70
2022-09-15T18:06:58.504Z,4.47
2022-09-15T18:10:01.527Z,4.82
2022-09-15T18:13:05.270Z,4.90
2022-09-15T18:16:11.959Z,5.10
2022-09-15T18:19:14.589Z,5.50
2022-09-15T18:22:17.413Z,6.35
2022-09-15T18:25:28.177Z,6.03
2022-09-15T18:28:30.954Z,6.87
2022-09-15T18:31:33.497Z,6.57
2022-09-15T18:34:36.377Z,7.22
2022-09-15T18:37:39.111Z,7.50
2022-09-15T18:40:46.737Z,7.87
2022-09-15T18:43:49.350Z,8.73
2022-09-15T18:46:52.538Z,9.00
2022-09-15T18:49:55.104Z,9.90
2022-09-15T18:52:58.117Z,10.27
2022-09-15T18:56:00.620Z,11.02
2022-09-15T18:59:03.599Z,11.05
2022-09-15T19:02:06.443Z,11.97
2022-09-15T19:05:15.373Z,11.75
2022-09-15T19:08:18.005Z,12.65
2022-09-15T19:11:20.853Z,12.82
2022-09-15T19:14:23.450Z,12.88
2022-09-15T19:17:26.321Z,13.20
2022-09-15T19:20:29.968Z,13.88
2022-09-15T19:23:32.835Z,14.00
2022-09-15T19:26:35.864Z,13.32
2022-09-15T19:29:38.994Z,13.05
2022-09-15T19:32:42.983Z,12.53
2022-09-15T19:35:46.135Z,11.48
2022-09-15T19:38:48.745Z,12.32
2022-09-15T19:41:51.763Z,12.18
2022-09-15T19:44:54.382Z,12.05
2022-09-15T19:47:58.424Z,11.53
2022-09-15T19:51:01.305Z,10.63
2022-09-15T19:54:04.559Z,11.88
2022-09-15T19:57:07.087Z,11.05
2022-09-15T20:00:12.067Z,10.85
2022-09-15T20:03:15.417Z,9.00
2022-09-15T20:06:17.855Z,7.57
2022-09-15T20:09:21.142Z,9.23
2022-09-15T20:12:24.807Z,9.25
2022-09-15T20:15:27.618Z,10.05
2022-09-15T20:18:36.584Z,8.50
2022-09-15T20:21:55.587Z,9.05
2022-09-15T20:24:58.156Z,7.07
2022-09-15T20:28:00.975Z,6.50
2022-09-15T20:31:24.250Z,5.82
2022-09-15T20:34:27.069Z,5.17
2022-09-15T20:37:32.078Z,4.40
2022-09-15T20:40:37.505Z,4.12
2022-09-15T20:43:41.595Z,3.87
2022-09-15T20:46:44.791Z,3.85
2022-09-15T20:49:47.429Z,3.67
2022-09-15T20:52:50.296Z,2.90
2022-09-15T20:55:52.798Z,2.85
2022-09-15T20:58:59.929Z,2.72
2022-09-15T21:02:04.781Z,2.60
2022-09-15T21:05:08.791Z,2.83
2022-09-15T21:08:12.036Z,2.70
2022-09-15T21:11:16.279Z,2.78
2022-09-15T21:14:18.879Z,2.45
2022-09-15T21:17:23.171Z,2.60
2022-09-15T21:20:27.265Z,2.80
2022-09-15T21:23:37.875Z,2.47
2022-09-15T21:27:00.185Z,2.40
2022-09-15T21:30:03.433Z,2.50
2022-09-15T21:33:06.476Z,2.90
2022-09-15T21:36:10.452Z,3.07
2022-09-15T21:39:13.012Z,2.42
2022-09-15T21:42:15.972Z,2.78
2022-09-15T21:45:18.457Z,2.83
2022-09-15T21:48:21.282Z,2.47
2022-09-15T21:51:25.442Z,2.50
2022-09-15T21:54:28.346Z,2.70
2022-09-15T21:57:30.902Z,2.92
2022-09-15T22:00:36.740Z,3.12
2022-09-15T22:03:43.092Z,2.78
2022-09-15T22:06:46.914Z,2.93
2022-09-15T22:09:49.873Z,2.72
2022-09-15T22:12:52.863Z,2.90
2022-09-15T22:16:07.776Z,3.40
2022-09-15T22:19:11.729Z,3.75
2022-09-15T22:22:14.451Z,3.27
2022-09-15T22:25:21.689Z,3.70
2022-09-15T22:28:24.828Z,3.37
2022-09-15T22:31:30.767Z,3.15
2022-09-15T22:34:33.697Z,4.22
2022-09-15T22:37:36.326Z,3.87
2022-09-15T22:40:39.224Z,3.17
2022-09-15T22:43:43.565Z,3.42
2022-09-15T22:46:46.583Z,3.50
2022-09-15T22:49:49.081Z,3.62
2022-09-15T22:52:52.301Z,3.80
2022-09-15T22:56:06.879Z,3.78
2022-09-15T22:59:09.775Z,3.50
2022-09-15T23:02:14.450Z,4.28
2022-09-15T23:05:17.337Z,3.40
2022-09-15T23:08:19.802Z,4.00
2022-09-15T23:11:23.096Z,3.28
2022-09-15T23:14:25.671Z,3.25
2022-09-15T23:17:28.411Z,3.92
2022-09-15T23:20:31.082Z,3.17
2022-09-15T23:23:35.617Z,3.03
2022-09-15T23:26:38.198Z,3.40
2022-09-15T23:29:40.924Z,3.53
2022-09-15T23:32:43.604Z,3.10
2022-09-15T23:35:46.709Z,3.30
2022-09-15T23:38:49.958Z,3.00
2022-09-15T23:41:53.025Z,3.05
2022-09-15T23:44:55.523Z,3.20
2022-09-15T23:47:58.337Z,3.40
2022-09-15T23:51:01.143Z,3.60
2022-09-15T23:54:04.746Z,3.33
2022-09-15T23:57:08.831Z,3.12
